createdAt,value
2022-09-01T00:01:11.363Z,0.50
2022-09-01T00:04:19.653Z,0.30
2022-09-01T00:07:27.996Z,0.30
2022-09-01T00:10:35.404Z,0.30
2022-09-01T00:13:43.889Z,0.50
2022-09-01T00:16:52.040Z,0.50
2022-09-01T00:19:59.416Z,0.50
2022-09-01T00:23:07.636Z,0.40
2022-09-01T00:26:15.516Z,0.50
2022-09-01T00:29:23.501Z,0.70
2022-09-01T00:32:31.779Z,0.50
2022-09-01T00:35:39.757Z,0.60
2022-09-01T00:38:48.183Z,0.40
2022-09-01T00:41:55.804Z,0.40
2022-09-01T00:45:03.744Z,0.40
2022-09-01T00:48:11.784Z,0.60
2022-09-01T00:51:19.741Z,0.40
2022-09-01T00:54:28.006Z,0.50
2022-09-01T00:57:36.205Z,0.60
2022-09-01T01:00:44.226Z,0.60
2022-09-01T01:03:52.349Z,0.40
2022-09-01T01:06:59.961Z,0.60
2022-09-01T01:10:07.979Z,0.70
2022-09-01T01:13:16.484Z,0.80
2022-09-01T01:16:24.115Z,0.50
2022-09-01T01:19:35.849Z,0.40
2022-09-01T01:22:35.867Z,0.70
2022-09-01T01:25:43.673Z,0.50
2022-09-01T01:28:52.045Z,0.50
2022-09-01T01:31:51.713Z,0.70
2022-09-01T01:34:59.668Z,0.50
2022-09-01T01:38:07.676Z,0.50
2022-09-01T01:41:15.505Z,0.40
2022-09-01T01:44:23.915Z,0.50
2022-09-01T01:47:31.555Z,0.70
2022-09-01T01:50:39.104Z,0.60
2022-09-01T01:53:47.402Z,0.50
2022-09-01T01:56:55.573Z,0.50
2022-09-01T02:00:03.465Z,0.60
2022-09-01T02:03:11.434Z,0.40
2022-09-01T02:06:19.751Z,0.50
2022-09-01T02:09:27.467Z,0.70
2022-09-01T02:12:35.205Z,0.50
2022-09-01T02:15:43.282Z,0.40
2022-09-01T02:18:51.305Z,0.60
2022-09-01T02:21:59.770Z,0.60
2022-09-01T02:25:08.080Z,0.90
2022-09-01T02:28:15.725Z,0.50
2022-09-01T02:31:24.863Z,0.70
2022-09-01T02:34:32.787Z,0.60
2022-09-01T02:37:40.755Z,0.70
2022-09-01T02:40:48.715Z,0.50
2022-09-01T02:43:56.578Z,0.60
2022-09-01T02:47:04.844Z,0.60
2022-09-01T02:50:12.856Z,0.50
2022-09-01T02:53:20.885Z,0.60
2022-09-01T02:56:28.764Z,0.50
2022-09-01T02:59:39.590Z,0.50
2022-09-01T03:02:38.592Z,0.60
2022-09-01T03:05:46.375Z,0.70
2022-09-01T03:08:54.783Z,0.70
2022-09-01T03:12:02.684Z,0.70
2022-09-01T03:15:10.234Z,0.60
2022-09-01T03:18:10.714Z,0.80
2022-09-01T03:21:18.178Z,0.60
2022-09-01T03:24:26.627Z,0.50
2022-09-01T03:27:34.670Z,0.70
2022-09-01T03:30:42.330Z,0.80
2022-09-01T03:33:50.669Z,0.80
2022-09-01T03:36:58.269Z,0.70
2022-09-01T03:40:05.968Z,0.90
2022-09-01T03:43:14.024Z,0.70
2022-09-01T03:46:22.219Z,0.90
2022-09-01T03:49:30.198Z,0.80
2022-09-01T03:52:38.201Z,0.90
2022-09-01T03:55:45.984Z,0.90
2022-09-01T03:58:53.935Z,1.10
2022-09-01T04:02:02.652Z,0.80
2022-09-01T04:05:10.935Z,0.90
2022-09-01T04:08:18.676Z,1.00
2022-09-01T04:11:26.891Z,1.00
2022-09-01T04:14:35.359Z,0.80
2022-09-01T04:17:42.889Z,0.90
2022-09-01T04:20:51.018Z,0.70
2022-09-01T04:23:58.701Z,0.70
2022-09-01T04:27:06.030Z,1.10
2022-09-01T04:30:14.201Z,0.90
2022-09-01T04:33:22.262Z,0.80
2022-09-01T04:36:29.936Z,0.80
2022-09-01T04:39:38.194Z,0.60
2022-09-01T04:42:45.552Z,0.90
2022-09-01T04:45:53.648Z,0.80
2022-09-01T04:49:01.686Z,0.70
2022-09-01T04:52:09.035Z,0.90
2022-09-01T04:55:17.727Z,0.90
2022-09-01T04:58:25.778Z,0.80
2022-09-01T05:01:33.707Z,0.80
2022-09-01T05:04:41.400Z,0.90
2022-09-01T05:07:49.250Z,0.70
2022-09-01T05:10:57.231Z,0.90
2022-09-01T05:14:04.972Z,1.20
2022-09-01T05:17:13.114Z,0.70
2022-09-01T05:20:21.031Z,1.00
2022-09-01T05:23:28.844Z,0.70
2022-09-01T05:26:36.791Z,1.30
2022-09-01T05:29:45.154Z,0.60
2022-09-01T05:32:53.715Z,1.20
2022-09-01T05:36:02.585Z,0.70
2022-09-01T05:39:10.519Z,0.70
2022-09-01T05:42:18.737Z,0.70
2022-09-01T05:45:27.098Z,0.70
2022-09-01T05:48:34.481Z,0.60
2022-09-01T05:51:45.642Z,0.80
2022-09-01T05:54:43.071Z,0.90
2022-09-01T05:57:50.844Z,1.00
2022-09-01T06:00:58.739Z,1.30
2022-09-01T06:04:07.092Z,0.90
2022-09-01T06:07:16.348Z,0.60
2022-09-01T06:10:24.384Z,0.60
2022-09-01T06:13:32.266Z,0.80
2022-09-01T06:16:42.046Z,0.60
2022-09-01T06:19:50.245Z,0.60
2022-09-01T06:22:58.109Z,1.00
2022-09-01T06:26:05.858Z,0.90
2022-09-01T06:29:13.947Z,0.70
2022-09-01T06:32:21.761Z,0.60
2022-09-01T06:35:29.667Z,0.50
2022-09-01T06:38:37.775Z,0.60
2022-09-01T06:41:45.483Z,0.70
2022-09-01T06:44:53.933Z,0.60
2022-09-01T06:48:02.454Z,0.50
2022-09-01T06:51:20.158Z,0.50
2022-09-01T06:54:15.767Z,0.60
2022-09-01T07:00:28.918Z,0.80
2022-09-01T07:03:37.679Z,0.80
2022-09-01T07:07:53.192Z,0.70
2022-09-01T07:10:06.057Z,0.60
2022-09-01T07:13:11.133Z,0.50
2022-09-01T07:19:06.044Z,0.60
2022-09-01T07:25:19.916Z,0.80
2022-09-01T07:31:50.175Z,0.60
2022-09-01T07:34:39.501Z,0.40
2022-09-01T07:38:47.414Z,0.60
2022-09-01T07:42:30.321Z,0.60
2022-09-01T07:42:56.764Z,0.70
2022-09-01T07:43:58.938Z,0.60
2022-09-01T07:47:52.290Z,0.50
2022-09-01T07:50:25.609Z,0.40
2022-09-01T07:53:18.003Z,0.20
2022-09-01T07:56:26.215Z,0.20
2022-09-01T07:59:34.274Z,0.20
2022-09-01T08:02:42.866Z,0.20
2022-09-01T08:05:50.995Z,0.30
2022-09-01T08:08:58.987Z,0.30
2022-09-01T08:12:07.940Z,0.20
2022-09-01T08:18:21.715Z,0.20
2022-09-01T08:21:29.807Z,0.20
2022-09-01T08:24:37.902Z,0.10
2022-09-01T08:27:46.245Z,0.30
2022-09-01T08:30:54.083Z,0.20
2022-09-01T08:34:02.786Z,0.30
2022-09-01T08:37:11.277Z,0.10
2022-09-01T08:40:18.816Z,0.20
2022-09-01T08:43:27.048Z,0.30
2022-09-01T08:46:35.261Z,0.20
2022-09-01T08:49:43.777Z,0.10
2022-09-01T08:52:53.041Z,0.20
2022-09-01T08:56:00.494Z,0.20
2022-09-01T08:59:08.505Z,0.20
2022-09-01T09:02:16.804Z,0.30
2022-09-01T09:05:24.646Z,0.20
2022-09-01T09:08:33.410Z,0.20
2022-09-01T09:11:41.410Z,0.50
2022-09-01T09:14:49.739Z,0.10
2022-09-01T09:17:59.867Z,0.20
2022-09-01T09:20:57.303Z,0.30
2022-09-01T09:24:05.183Z,0.10
2022-09-01T09:27:13.045Z,0.20
2022-09-01T09:30:21.235Z,0.10
2022-09-01T09:33:48.645Z,0.10
2022-09-01T09:36:34.813Z,0.20
2022-09-01T09:39:43.929Z,0.40
2022-09-01T09:42:52.227Z,0.10
2022-09-01T09:46:00.587Z,0.30
2022-09-01T09:49:08.991Z,0.30
2022-09-01T09:52:16.695Z,0.20
2022-09-01T09:55:25.224Z,0.20
2022-09-01T09:58:33.082Z,0.20
2022-09-01T10:01:41.045Z,0.20
2022-09-01T10:04:52.623Z,0.20
2022-09-01T10:07:52.588Z,0.20
2022-09-01T10:11:00.468Z,0.50
2022-09-01T10:14:08.439Z,0.10
2022-09-01T10:17:16.594Z,0.10
2022-09-01T10:20:24.342Z,0.20
2022-09-01T10:23:32.065Z,0.10
2022-09-01T10:26:39.913Z,0.10
2022-09-01T10:29:48.059Z,0.20
2022-09-01T10:32:58.902Z,0.20
2022-09-01T10:35:59.307Z,0.10
2022-09-01T10:39:09.138Z,0.10
2022-09-01T10:42:19.540Z,0.40
2022-09-01T10:45:27.602Z,0.30
2022-09-01T10:48:47.983Z,0.20
2022-09-01T10:51:50.572Z,0.10
2022-09-01T10:54:52.713Z,0.10
2022-09-01T10:57:50.575Z,0.20
2022-09-01T11:01:25.809Z,0.10
2022-09-01T11:04:04.226Z,0.10
2022-09-01T11:07:12.505Z,0.10
2022-09-01T11:10:36.108Z,0.20
2022-09-01T11:13:25.640Z,0.20
2022-09-01T11:16:50.395Z,0.10
2022-09-01T11:19:39.734Z,0.10
2022-09-01T11:22:47.444Z,0.10
2022-09-01T11:29:00.935Z,0.40
2022-09-01T11:32:08.878Z,0.30
2022-09-01T11:35:16.657Z,0.20
2022-09-01T11:38:24.942Z,0.20
2022-09-01T11:41:33.059Z,0.10
2022-09-01T11:44:41.142Z,0.10
2022-09-01T11:47:50.723Z,0.20
2022-09-01T11:50:58.446Z,0.10
2022-09-01T11:54:06.865Z,0.10
2022-09-01T11:57:15.116Z,0.20
2022-09-01T12:00:23.027Z,0.10
2022-09-01T12:03:31.786Z,0.10
2022-09-01T12:06:39.951Z,0.10
2022-09-01T12:09:48.163Z,0.10
2022-09-01T12:12:56.801Z,0.20
2022-09-01T12:16:18.069Z,0.20
2022-09-01T12:19:10.114Z,0.10
2022-09-01T12:22:18.365Z,0.10
2022-09-01T12:25:26.674Z,0.20
2022-09-01T12:28:35.229Z,0.10
2022-09-01T12:31:43.319Z,0.20
2022-09-01T12:34:51.361Z,0.10
2022-09-01T12:37:59.381Z,0.30
2022-09-01T12:41:08.474Z,0.10
2022-09-01T12:44:17.005Z,0.10
2022-09-01T12:47:26.875Z,0.50
2022-09-01T12:50:36.046Z,0.10
2022-09-01T12:53:44.376Z,0.10
2022-09-01T12:56:52.659Z,0.10
2022-09-01T13:00:01.069Z,0.30
2022-09-01T13:03:08.560Z,0.10
2022-09-01T13:06:17.649Z,0.10
2022-09-01T13:09:25.164Z,0.10
2022-09-01T13:12:33.274Z,0.10
2022-09-01T13:15:41.473Z,0.10
2022-09-01T13:21:54.464Z,0.10
2022-09-01T13:25:02.930Z,0.30
2022-09-01T13:28:10.410Z,0.10
2022-09-01T13:31:34.522Z,0.10
2022-09-01T13:34:24.287Z,0.10
2022-09-01T13:37:32.783Z,0.10
2022-09-01T13:40:41.391Z,0.20
2022-09-01T13:43:50.022Z,0.10
2022-09-01T13:46:59.283Z,0.10
2022-09-01T13:50:10.820Z,0.10
2022-09-01T13:53:09.279Z,0.20
2022-09-01T13:56:17.181Z,0.20
2022-09-01T13:59:25.158Z,0.20
2022-09-01T14:02:33.362Z,0.10
2022-09-01T14:05:40.813Z,0.10
2022-09-01T14:08:49.015Z,0.10
2022-09-01T14:11:57.075Z,0.10
2022-09-01T14:15:15.555Z,0.30
2022-09-01T14:18:10.088Z,0.10
2022-09-01T14:21:18.860Z,0.00
2022-09-01T14:24:27.124Z,0.10
2022-09-01T14:27:36.301Z,0.10
2022-09-01T14:30:44.203Z,0.10
2022-09-01T14:33:51.744Z,0.00
2022-09-01T14:36:59.906Z,0.10
2022-09-01T14:40:07.661Z,0.10
2022-09-01T14:43:15.505Z,0.20
2022-09-01T14:46:23.348Z,0.10
2022-09-01T14:49:31.586Z,0.10
2022-09-01T14:52:39.406Z,0.20
2022-09-01T14:55:47.267Z,0.10
2022-09-01T14:58:55.203Z,0.10
2022-09-01T15:02:03.151Z,0.10
2022-09-01T15:05:11.763Z,0.10
2022-09-01T15:08:19.889Z,0.10
2022-09-01T15:11:27.680Z,0.20
2022-09-01T15:14:35.651Z,0.10
2022-09-01T15:17:46.436Z,0.10
2022-09-01T15:20:43.873Z,0.20
2022-09-01T15:23:52.011Z,0.00
2022-09-01T15:26:59.486Z,0.10
2022-09-01T15:30:07.917Z,0.20
2022-09-01T15:33:16.237Z,0.00
2022-09-01T15:36:23.680Z,0.10
2022-09-01T15:39:37.601Z,0.10
2022-09-01T15:42:35.317Z,0.10
2022-09-01T15:45:43.245Z,0.10
2022-09-01T15:48:51.393Z,0.30
2022-09-01T15:51:58.825Z,0.10
2022-09-01T15:55:07.223Z,0.10
2022-09-01T15:58:15.075Z,0.20
2022-09-01T16:01:23.244Z,0.10
2022-09-01T16:04:30.679Z,0.10
2022-09-01T16:07:38.601Z,0.30
2022-09-01T16:10:46.522Z,0.10
2022-09-01T16:13:54.073Z,0.10
2022-09-01T16:17:02.096Z,0.10
2022-09-01T16:20:09.826Z,0.10
2022-09-01T16:23:17.458Z,0.00
2022-09-01T16:26:25.599Z,0.20
2022-09-01T16:29:33.067Z,0.10
2022-09-01T16:32:41.159Z,0.10
2022-09-01T16:35:49.382Z,0.10
2022-09-01T16:38:57.033Z,0.00
2022-09-01T16:42:05.314Z,0.10
2022-09-01T16:45:13.306Z,0.20
2022-09-01T16:48:21.708Z,0.10
2022-09-01T16:51:30.516Z,0.10
2022-09-01T16:54:38.745Z,0.20
2022-09-01T16:57:46.877Z,0.00
2022-09-01T17:00:57.273Z,0.10
2022-09-01T17:04:05.863Z,0.20
2022-09-01T17:07:13.487Z,0.10
2022-09-01T17:10:22.372Z,0.20
2022-09-01T17:13:30.744Z,0.00
2022-09-01T17:16:38.338Z,0.10
2022-09-01T17:19:46.667Z,0.10
2022-09-01T17:22:54.928Z,0.20
2022-09-01T17:26:02.308Z,0.20
2022-09-01T17:29:10.602Z,0.10
2022-09-01T17:32:18.404Z,0.10
2022-09-01T17:35:26.323Z,0.10
2022-09-01T17:38:34.483Z,0.10
2022-09-01T17:41:42.432Z,0.30
2022-09-01T17:44:50.526Z,0.10
2022-09-01T17:47:58.527Z,0.10
2022-09-01T17:51:07.030Z,0.10
2022-09-01T17:54:14.906Z,0.20
2022-09-01T17:57:22.720Z,0.20
2022-09-01T18:00:31.340Z,0.10
2022-09-01T18:03:38.914Z,0.20
2022-09-01T18:06:47.965Z,0.10
2022-09-01T18:09:56.636Z,0.10
2022-09-01T18:13:04.410Z,0.10
2022-09-01T18:16:13.006Z,0.10
2022-09-01T18:19:20.877Z,0.20
2022-09-01T18:22:28.881Z,0.20
2022-09-01T18:25:36.983Z,0.40
2022-09-01T18:28:44.782Z,0.10
2022-09-01T18:31:52.917Z,0.10
2022-09-01T18:35:01.003Z,0.20
2022-09-01T18:38:09.064Z,0.30
2022-09-01T18:41:17.206Z,0.30
2022-09-01T18:44:26.680Z,0.10
2022-09-01T18:47:34.635Z,0.20
2022-09-01T18:50:45.576Z,0.10
2022-09-01T18:53:42.546Z,0.10
2022-09-01T18:56:50.580Z,0.10
2022-09-01T18:59:58.049Z,0.20
2022-09-01T19:03:06.275Z,0.20
2022-09-01T19:06:14.563Z,0.70
2022-09-01T19:09:22.087Z,0.50
2022-09-01T19:12:30.486Z,0.10
2022-09-01T19:15:38.661Z,0.20
2022-09-01T19:18:46.826Z,0.10
2022-09-01T19:21:54.859Z,0.20
2022-09-01T19:25:03.560Z,0.50
2022-09-01T19:28:11.601Z,0.10
2022-09-01T19:31:19.717Z,0.10
2022-09-01T19:34:27.992Z,0.10
2022-09-01T19:37:35.914Z,0.20
2022-09-01T19:40:43.906Z,0.10
2022-09-01T19:43:52.115Z,0.20
2022-09-01T19:46:59.645Z,0.20
2022-09-01T19:50:08.067Z,0.10
2022-09-01T19:53:16.086Z,0.10
2022-09-01T19:56:23.620Z,0.10
2022-09-01T19:59:34.706Z,0.20
2022-09-01T20:02:43.069Z,0.10
2022-09-01T20:05:50.611Z,0.40
2022-09-01T20:08:58.994Z,0.10
2022-09-01T20:12:06.736Z,0.20
2022-09-01T20:15:15.015Z,0.10
2022-09-01T20:18:22.832Z,0.00
2022-09-01T20:21:30.372Z,0.20
2022-09-01T20:24:38.729Z,0.10
2022-09-01T20:27:46.702Z,0.20
2022-09-01T20:30:56.657Z,0.10
2022-09-01T20:34:04.331Z,0.20
2022-09-01T20:37:12.655Z,0.40
2022-09-01T20:40:20.974Z,0.20
2022-09-01T20:43:29.081Z,0.30
2022-09-01T20:46:37.923Z,0.30
2022-09-01T20:49:45.956Z,0.20
2022-09-01T20:52:53.855Z,0.30
2022-09-01T20:56:02.000Z,0.40
2022-09-01T20:59:09.439Z,0.20
2022-09-01T21:02:17.841Z,0.20
2022-09-01T21:05:26.071Z,0.20
2022-09-01T21:08:33.481Z,0.20
2022-09-01T21:11:41.602Z,0.20
2022-09-01T21:14:49.773Z,0.20
2022-09-01T21:17:57.294Z,0.20
2022-09-01T21:21:05.532Z,0.20
2022-09-01T21:24:13.316Z,0.30
2022-09-01T21:27:21.208Z,0.20
2022-09-01T21:30:29.140Z,0.20
2022-09-01T21:33:37.087Z,0.20
2022-09-01T21:36:45.044Z,0.20
2022-09-01T21:39:52.911Z,0.30
2022-09-01T21:43:00.662Z,0.20
2022-09-01T21:46:08.559Z,0.30
2022-09-01T21:49:16.224Z,0.10
2022-09-01T21:52:23.933Z,0.20
2022-09-01T21:55:31.431Z,0.40
2022-09-01T21:58:39.733Z,0.20
2022-09-01T22:01:47.921Z,0.50
2022-09-01T22:04:55.626Z,0.30
2022-09-01T22:08:03.958Z,0.20
2022-09-01T22:11:11.829Z,0.20
2022-09-01T22:14:19.277Z,0.30
2022-09-01T22:17:27.470Z,0.30
2022-09-01T22:20:35.359Z,0.20
2022-09-01T22:23:43.202Z,0.30
2022-09-01T22:26:51.274Z,0.40
2022-09-01T22:29:59.205Z,0.20
2022-09-01T22:33:06.956Z,0.20
2022-09-01T22:36:15.275Z,0.50
2022-09-01T22:39:25.207Z,0.30
2022-09-01T22:42:23.045Z,0.20
2022-09-01T22:45:30.794Z,0.20
2022-09-01T22:48:38.487Z,0.20
2022-09-01T22:51:46.192Z,0.20
2022-09-01T22:54:54.399Z,0.40
2022-09-01T22:58:02.439Z,0.20
2022-09-01T23:01:10.454Z,0.20
2022-09-01T23:04:18.446Z,0.20
2022-09-01T23:07:26.374Z,0.20
2022-09-01T23:10:34.106Z,0.30
2022-09-01T23:13:42.334Z,0.30
2022-09-01T23:16:51.385Z,0.30
2022-09-01T23:19:59.297Z,0.20
2022-09-01T23:23:07.668Z,0.30
2022-09-01T23:26:15.610Z,0.40
2022-09-01T23:29:23.505Z,0.20
2022-09-01T23:32:31.961Z,0.20
2022-09-01T23:35:39.721Z,0.20
2022-09-01T23:38:47.771Z,0.30
2022-09-01T23:41:55.888Z,0.30
2022-09-01T23:45:03.820Z,0.20
2022-09-01T23:48:11.725Z,0.20
2022-09-01T23:51:20.076Z,0.20
2022-09-01T23:54:27.566Z,0.30
2022-09-01T23:57:36.116Z,0.60
